Time;durP1;ratioP1;P1;durP2;ratioP2;P2;SDS_P1;SDS_P2;PMS_P1;PMS_P2;Temp;Humidity;BMP_temperature;BMP_pressure;BME280_temperature;BME280_humidity;BME280_pressure;Samples;Min_cycle;Max_cycle;Signal;HPM_P1;HPM_P2
2022/04/25 00:02:13;;;;;;;1.47;0.83;;;8.20;73.80;;;;;;4977769;28;20305;-62
2022/04/25 00:04:39;;;;;;;1.57;0.80;;;8.10;73.70;;;;;;4977330;28;20197;-62
2022/04/25 00:07:05;;;;;;;2.90;1.37;;;8.20;73.80;;;;;;4977083;28;20204;-62
2022/04/25 00:09:30;;;;;;;1.07;0.60;;;7.90;74.30;;;;;;4978201;28;20185;-62
2022/04/25 00:11:56;;;;;;;1.60;0.93;;;7.90;74.70;;;;;;4977344;28;20274;-62
2022/04/25 00:14:22;;;;;;;1.13;1.03;;;7.80;74.90;;;;;;4993919;28;20331;-62
2022/04/25 00:16:47;;;;;;;2.53;0.80;;;7.80;75.10;;;;;;4977501;28;20188;-62
2022/04/25 00:19:13;;;;;;;1.07;0.83;;;7.70;75.40;;;;;;4977147;28;20199;-61
2022/04/25 00:21:39;;;;;;;1.60;0.80;;;7.70;75.50;;;;;;4977316;28;20250;-62
2022/04/25 00:24:05;;;;;;;6.50;1.20;;;7.80;75.40;;;;;;4977815;28;20246;-62
2022/04/25 00:26:30;;;;;;;0.97;0.80;;;7.80;75.40;;;;;;4961702;28;20200;-62
2022/04/25 00:28:56;;;;;;;1.03;0.83;;;7.60;76.30;;;;;;4977354;28;20448;-62
2022/04/25 00:31:22;;;;;;;3.03;0.97;;;7.40;76.40;;;;;;4976946;28;20223;-61
2022/04/25 00:33:47;;;;;;;1.60;0.90;;;7.50;76.30;;;;;;4977660;28;20215;-61
2022/04/25 00:36:13;;;;;;;1.83;1.00;;;7.50;76.60;;;;;;4970643;28;20227;-62
2022/04/25 00:38:39;;;;;;;3.40;1.00;;;7.50;76.70;;;;;;4960746;28;20200;-62
2022/04/25 00:41:07;;;;;;;2.20;1.20;;;7.50;76.80;;;;;;4977886;28;20180;-62
2022/04/25 00:43:33;;;;;;;1.53;0.90;;;7.50;76.80;;;;;;4977087;28;20226;-62
2022/04/25 00:45:59;;;;;;;1.03;0.70;;;7.40;76.90;;;;;;4977570;28;20508;-62
2022/04/25 00:48:25;;;;;;;2.80;1.10;;;7.30;77.00;;;;;;4977580;28;20184;-62
2022/04/25 00:50:50;;;;;;;1.63;1.07;;;7.30;77.00;;;;;;4977361;28;20500;-62
2022/04/25 00:53:16;;;;;;;1.23;1.00;;;7.30;77.40;;;;;;4977472;28;20177;-61
2022/04/25 00:55:42;;;;;;;1.10;0.97;;;7.30;77.40;;;;;;4976790;28;20196;-62
2022/04/25 00:58:08;;;;;;;1.27;0.90;;;7.20;77.40;;;;;;4977497;28;20191;-62
2022/04/25 01:00:36;;;;;;;2.67;1.00;;;7.10;78.10;;;;;;4976774;28;20191;-61
2022/04/25 01:03:03;;;;;;;2.33;0.67;;;7.00;78.30;;;;;;4995399;28;20172;-62
2022/04/25 01:05:29;;;;;;;2.07;0.70;;;7.00;78.10;;;;;;4997246;28;20401;-61
2022/04/25 01:07:55;;;;;;;4.70;1.07;;;7.10;78.30;;;;;;4980259;28;20441;-61
2022/04/25 01:10:20;;;;;;;2.27;0.90;;;7.10;78.50;;;;;;4981088;28;20180;-61
2022/04/25 01:12:46;;;;;;;1.40;1.00;;;7.00;78.60;;;;;;4980737;28;20208;-61
2022/04/25 01:15:12;;;;;;;1.90;0.80;;;7.00;78.60;;;;;;4996716;28;20291;-61
2022/04/25 01:17:39;;;;;;;2.57;0.70;;;7.00;78.60;;;;;;4980350;28;20192;-62
2022/04/25 01:20:07;;;;;;;1.27;0.90;;;7.00;78.50;;;;;;4984834;28;20446;-62
2022/04/25 01:22:51;;;;;;;1.67;0.90;;;7.00;78.60;;;;;;4991561;28;20484;-61
2022/04/25 01:28:03;;;;;;;3.07;1.13;;;7.00;78.90;;;;;;4997216;28;20433;-62
2022/04/25 01:30:32;;;;;;;1.63;0.90;;;6.90;79.00;;;;;;4996520;28;20465;-62
2022/04/25 01:32:58;;;;;;;2.90;1.00;;;6.90;79.20;;;;;;4980744;28;20203;-62
2022/04/25 01:35:24;;;;;;;0.70;0.70;;;6.90;79.30;;;;;;4996380;28;20504;-62
2022/04/25 01:37:50;;;;;;;1.57;0.80;;;7.00;79.30;;;;;;4980276;28;20449;-62
2022/04/25 01:40:15;;;;;;;2.03;1.20;;;6.90;79.50;;;;;;4980414;28;20189;-61
2022/04/25 01:42:42;;;;;;;1.37;0.80;;;6.90;79.40;;;;;;4980293;28;20195;-62
2022/04/25 01:45:08;;;;;;;0.80;0.80;;;6.90;79.40;;;;;;4980589;28;20200;-63
2022/04/25 01:47:34;;;;;;;1.30;0.90;;;6.90;79.30;;;;;;4983023;28;20484;-63
2022/04/25 01:49:59;;;;;;;1.40;0.70;;;6.90;79.30;;;;;;4980176;28;20461;-63
2022/04/25 01:52:30;;;;;;;2.03;1.03;;;7.00;79.60;;;;;;4979866;28;20192;-63
2022/04/25 01:54:57;;;;;;;1.20;0.77;;;7.00;79.80;;;;;;5015308;28;20220;-63
2022/04/25 01:57:22;;;;;;;1.10;0.90;;;7.00;79.70;;;;;;5001891;28;20426;-63
2022/04/25 01:59:48;;;;;;;3.17;0.80;;;7.20;79.60;;;;;;4980093;28;20430;-63
2022/04/25 02:02:14;;;;;;;1.80;0.90;;;7.10;79.80;;;;;;4988906;28;20195;-63
2022/04/25 02:04:41;;;;;;;4.80;1.00;;;7.20;79.80;;;;;;4999128;28;20180;-62
2022/04/25 02:07:09;;;;;;;2.37;0.97;;;7.20;79.70;;;;;;5005309;28;20445;-62
2022/04/25 02:09:36;;;;;;;1.30;0.90;;;7.30;79.60;;;;;;4980122;28;20428;-62
2022/04/25 02:12:03;;;;;;;0.93;0.77;;;7.30;79.20;;;;;;4979596;28;20426;-63
2022/04/25 02:14:29;;;;;;;1.23;0.80;;;7.30;79.00;;;;;;4979597;28;20461;-62
2022/04/25 02:17:01;;;;;;;1.40;0.70;;;7.30;78.80;;;;;;4979240;28;20444;-62
2022/04/25 02:19:28;;;;;;;1.73;1.10;;;7.30;79.00;;;;;;4990997;28;20413;-63
2022/04/25 02:21:55;;;;;;;1.03;0.67;;;7.30;78.70;;;;;;4986878;28;20536;-62
2022/04/25 02:24:21;;;;;;;1.93;0.60;;;7.30;78.50;;;;;;4995177;28;20468;-62
2022/04/25 02:26:50;;;;;;;1.03;0.90;;;7.30;78.90;;;;;;4979522;28;20422;-62
2022/04/25 02:29:18;;;;;;;1.73;0.80;;;7.30;79.30;;;;;;4979591;28;20278;-62
2022/04/25 02:31:44;;;;;;;1.80;0.70;;;7.30;79.50;;;;;;4979246;28;20456;-62
2022/04/25 02:34:10;;;;;;;1.70;0.93;;;7.30;79.20;;;;;;4975631;28;20474;-62
2022/04/25 02:36:36;;;;;;;2.93;0.90;;;7.30;79.20;;;;;;4992219;28;20188;-62
2022/04/25 02:39:03;;;;;;;3.20;0.80;;;7.40;79.00;;;;;;4979333;28;20180;-62
2022/04/25 02:41:29;;;;;;;3.37;0.97;;;7.30;79.00;;;;;;4994807;28;20188;-62
2022/04/25 02:43:54;;;;;;;1.07;0.80;;;7.30;79.30;;;;;;4979303;28;20429;-63
2022/04/25 02:46:20;;;;;;;0.80;0.80;;;7.30;79.30;;;;;;4974586;28;20201;-62
2022/04/25 02:48:47;;;;;;;1.93;0.63;;;7.30;79.60;;;;;;4969111;28;20197;-62
2022/04/25 02:51:14;;;;;;;1.67;0.87;;;7.30;79.80;;;;;;4992446;28;20198;-62
2022/04/25 02:53:41;;;;;;;2.73;1.13;;;7.20;79.90;;;;;;4995054;28;20453;-62
2022/04/25 02:56:07;;;;;;;1.83;0.87;;;7.10;79.70;;;;;;4969217;28;20422;-62
2022/04/25 02:58:35;;;;;;;1.70;0.83;;;7.20;79.70;;;;;;4962707;28;20519;-62
2022/04/25 03:01:04;;;;;;;1.33;0.87;;;7.20;79.70;;;;;;4994503;28;20422;-62
2022/04/25 03:03:32;;;;;;;1.47;0.80;;;7.20;79.80;;;;;;4978744;28;20453;-62
2022/04/25 03:05:59;;;;;;;3.07;1.10;;;7.20;79.90;;;;;;4956875;28;20441;-62
2022/04/25 03:08:25;;;;;;;0.77;0.63;;;7.30;79.70;;;;;;4975580;28;20406;-61
2022/04/25 03:10:52;;;;;;;1.00;0.87;;;7.30;79.70;;;;;;4978190;28;20510;-61
2022/04/25 03:13:19;;;;;;;3.07;0.97;;;7.20;79.40;;;;;;4988030;28;20200;-61
2022/04/25 03:15:47;;;;;;;3.00;1.10;;;7.20;79.30;;;;;;4963410;28;20427;-61
2022/04/25 03:18:16;;;;;;;2.33;1.20;;;7.30;78.90;;;;;;4988290;28;20453;-61
2022/04/25 03:20:44;;;;;;;1.30;0.90;;;7.30;79.10;;;;;;4984505;28;20413;-61
2022/04/25 03:23:10;;;;;;;1.40;0.87;;;7.30;79.50;;;;;;4964439;28;20433;-61
2022/04/25 03:25:37;;;;;;;1.80;1.00;;;7.20;79.70;;;;;;4960729;28;20549;-61
2022/04/25 03:28:03;;;;;;;2.87;1.00;;;7.20;79.60;;;;;;4961074;28;20434;-61
2022/04/25 03:30:29;;;;;;;3.27;1.40;;;7.30;79.70;;;;;;4991652;28;20422;-62
2022/04/25 03:32:56;;;;;;;4.53;1.27;;;7.30;79.70;;;;;;4953612;28;20430;-61
2022/04/25 03:35:23;;;;;;;7.70;1.47;;;7.30;79.70;;;;;;4988091;28;20217;-61
2022/04/25 03:37:49;;;;;;;6.10;1.83;;;7.30;79.50;;;;;;4963604;28;20448;-62
2022/04/25 03:40:15;;;;;;;3.37;1.23;;;7.40;79.40;;;;;;4984274;28;20423;-62
2022/04/25 03:42:44;;;;;;;3.13;1.20;;;7.30;79.40;;;;;;4993880;28;20486;-61
2022/04/25 03:45:11;;;;;;;5.20;1.50;;;7.40;79.40;;;;;;4994801;28;20576;-61
2022/04/25 03:47:38;;;;;;;5.03;1.30;;;7.40;79.50;;;;;;4968630;28;20433;-61
2022/04/25 03:50:08;;;;;;;4.43;1.10;;;7.50;79.20;;;;;;4968388;28;20437;-61
2022/04/25 03:52:34;;;;;;;3.77;1.43;;;7.50;79.20;;;;;;4958145;28;20502;-62
2022/04/25 03:57:44;;;;;;;5.87;1.10;;;7.60;79.40;;;;;;4976127;28;20453;-59
2022/04/25 04:00:11;;;;;;;2.90;1.30;;;7.50;79.50;;;;;;4961264;28;20423;-58
2022/04/25 04:02:37;;;;;;;2.30;1.30;;;7.60;79.60;;;;;;4944032;28;20208;-58
2022/04/25 04:05:03;;;;;;;5.53;2.03;;;7.60;79.50;;;;;;4958736;28;20404;-58
2022/04/25 04:07:29;;;;;;;2.47;1.20;;;7.60;78.90;;;;;;4958516;28;20465;-58
2022/04/25 04:09:55;;;;;;;4.20;1.77;;;7.50;79.00;;;;;;4961364;28;20427;-58
2022/04/25 04:12:25;;;;;;;2.30;1.43;;;7.60;79.20;;;;;;4962487;28;20207;-58
2022/04/25 04:14:51;;;;;;;5.10;1.50;;;7.40;79.60;;;;;;4971709;28;20208;-58
2022/04/25 04:17:17;;;;;;;1.63;0.80;;;7.50;79.30;;;;;;4961879;28;20425;-58
2022/04/25 04:19:46;;;;;;;4.10;1.20;;;7.50;79.70;;;;;;4977072;28;20212;-58
2022/04/25 04:22:12;;;;;;;2.57;1.20;;;7.50;79.40;;;;;;4994016;28;20484;-58
2022/04/25 04:24:38;;;;;;;3.27;1.13;;;7.60;79.70;;;;;;4977430;28;20573;-58
2022/04/25 04:27:05;;;;;;;3.50;1.57;;;7.50;79.80;;;;;;4977471;28;20203;-58
2022/04/25 04:29:32;;;;;;;2.90;1.40;;;7.50;79.70;;;;;;4957683;28;20224;-58
2022/04/25 04:32:00;;;;;;;2.83;1.17;;;7.50;79.80;;;;;;4958475;28;20466;-58
2022/04/25 04:34:26;;;;;;;3.87;1.40;;;7.60;80.40;;;;;;4988715;28;20473;-58
2022/04/25 04:36:51;;;;;;;2.43;0.90;;;7.50;80.30;;;;;;4971083;28;20441;-59
2022/04/25 04:39:18;;;;;;;2.53;1.40;;;7.50;80.70;;;;;;4961815;28;20190;-58
2022/04/25 04:41:44;;;;;;;2.10;1.37;;;7.60;80.50;;;;;;4964180;28;20275;-58
2022/04/25 04:44:10;;;;;;;3.30;1.40;;;7.60;80.50;;;;;;4976022;28;20426;-58
2022/04/25 04:46:36;;;;;;;5.43;1.33;;;7.70;80.30;;;;;;4964342;28;20427;-58
2022/04/25 04:49:02;;;;;;;1.73;1.00;;;7.80;79.90;;;;;;4961752;28;20419;-58
2022/04/25 04:51:27;;;;;;;3.60;1.50;;;7.80;80.20;;;;;;4962886;28;20196;-58
2022/04/25 04:53:53;;;;;;;3.43;1.60;;;7.80;79.60;;;;;;4961775;28;20277;-58
2022/04/25 04:56:19;;;;;;;4.87;1.67;;;7.80;79.30;;;;;;4978689;28;20283;-58
2022/04/25 04:58:45;;;;;;;3.63;1.60;;;7.90;79.10;;;;;;4969507;28;20193;-58
2022/04/25 05:01:11;;;;;;;2.20;1.30;;;8.00;78.90;;;;;;4964757;28;20200;-58
2022/04/25 05:03:38;;;;;;;2.57;1.47;;;8.00;79.00;;;;;;4992480;28;20432;-58
2022/04/25 05:06:05;;;;;;;5.60;1.33;;;8.00;78.70;;;;;;4998449;28;20266;-58
2022/04/25 05:08:31;;;;;;;2.63;1.53;;;8.10;78.40;;;;;;4983098;28;20416;-58
2022/04/25 05:10:56;;;;;;;2.13;1.20;;;8.10;77.50;;;;;;4982661;28;20499;-60
2022/04/25 05:13:22;;;;;;;4.60;1.20;;;8.20;78.20;;;;;;4978379;28;20196;-58
2022/04/25 05:15:48;;;;;;;3.53;1.20;;;8.30;78.10;;;;;;4958694;28;20201;-58
2022/04/25 05:18:13;;;;;;;3.73;1.50;;;8.30;78.00;;;;;;4954486;28;20196;-58
2022/04/25 05:20:39;;;;;;;6.17;1.20;;;8.30;77.50;;;;;;4958117;28;20189;-58
2022/04/25 05:23:05;;;;;;;2.00;1.00;;;8.30;77.40;;;;;;4969996;28;20189;-58
2022/04/25 05:25:31;;;;;;;5.33;1.07;;;8.30;77.40;;;;;;4959728;28;20240;-58
2022/04/25 05:27:56;;;;;;;2.33;1.23;;;8.40;76.80;;;;;;4958913;28;20207;-58
2022/04/25 05:30:24;;;;;;;3.13;1.40;;;8.40;77.20;;;;;;4975303;28;20181;-61
2022/04/25 05:32:51;;;;;;;4.40;1.30;;;8.50;77.90;;;;;;4974431;28;20193;-61
2022/04/25 05:35:23;;;;;;;4.10;1.57;;;8.40;78.30;;;;;;4976980;28;20495;-61
2022/04/25 05:37:49;;;;;;;3.93;1.10;;;8.40;77.80;;;;;;4995594;28;20441;-60
2022/04/25 05:40:19;;;;;;;4.33;1.33;;;8.50;77.20;;;;;;4978001;28;20500;-60
2022/04/25 05:42:46;;;;;;;2.73;1.30;;;8.60;77.10;;;;;;4981432;28;20452;-60
2022/04/25 05:45:15;;;;;;;2.83;1.20;;;8.70;76.90;;;;;;4980805;28;20425;-60
2022/04/25 05:47:43;;;;;;;5.23;1.63;;;8.90;76.20;;;;;;5001651;28;20438;-60
2022/04/25 05:52:55;;;;;;;1.70;1.30;;;9.00;75.70;;;;;;4985363;28;20516;-60
2022/04/25 05:55:22;;;;;;;2.37;1.60;;;9.10;76.50;;;;;;5014253;28;20461;-60
2022/04/25 05:57:47;;;;;;;1.67;1.20;;;9.10;75.60;;;;;;4987807;28;20449;-60
2022/04/25 06:00:16;;;;;;;4.07;1.43;;;9.30;75.50;;;;;;4977826;28;20422;-60
2022/04/25 06:02:43;;;;;;;4.30;1.90;;;9.30;75.40;;;;;;4970607;28;20193;-60
2022/04/25 06:05:10;;;;;;;3.57;1.43;;;9.40;75.30;;;;;;4966388;28;20451;-60
2022/04/25 06:07:37;;;;;;;2.83;1.37;;;9.50;75.20;;;;;;4972779;28;20446;-60
2022/04/25 06:10:04;;;;;;;5.60;2.07;;;9.50;74.40;;;;;;5008955;28;20442;-60
2022/04/25 06:12:30;;;;;;;4.20;1.50;;;9.60;73.50;;;;;;4984276;28;20446;-60
2022/04/25 06:14:57;;;;;;;3.67;1.70;;;9.60;73.50;;;;;;4993689;28;20493;-60
2022/04/25 06:17:23;;;;;;;6.17;1.70;;;9.70;73.50;;;;;;4976541;28;20418;-60
2022/04/25 06:19:49;;;;;;;4.47;1.17;;;9.80;73.70;;;;;;4976769;28;20450;-60
2022/04/25 06:22:17;;;;;;;4.00;1.40;;;9.80;73.70;;;;;;4976012;28;20519;-60
2022/04/25 06:24:43;;;;;;;5.37;1.33;;;9.90;73.30;;;;;;4991839;28;20278;-60
2022/04/25 06:27:09;;;;;;;4.40;1.57;;;10.00;73.60;;;;;;4963222;28;20483;-60
2022/04/25 06:29:35;;;;;;;1.53;1.27;;;10.00;72.20;;;;;;4958244;28;20272;-60
2022/04/25 06:32:05;;;;;;;2.70;1.30;;;10.10;73.00;;;;;;4957304;28;20539;-60
2022/04/25 06:34:32;;;;;;;2.27;1.30;;;10.20;72.90;;;;;;4958819;28;20459;-60
2022/04/25 06:36:58;;;;;;;2.60;1.30;;;10.20;73.00;;;;;;4973706;28;20426;-60
2022/04/25 06:39:23;;;;;;;3.17;1.43;;;10.20;71.60;;;;;;4965546;28;20466;-60
2022/04/25 06:41:49;;;;;;;2.77;1.40;;;10.20;70.50;;;;;;4977909;28;20442;-60
2022/04/25 06:44:15;;;;;;;3.37;1.30;;;10.30;71.50;;;;;;4977257;28;20204;-60
2022/04/25 06:46:42;;;;;;;3.93;1.50;;;10.30;71.90;;;;;;4976688;28;20196;-60
2022/04/25 06:49:19;;;;;;;2.03;1.40;;;10.50;71.40;;;;;;4996252;28;20190;-60
2022/04/25 06:51:46;;;;;;;5.13;1.50;;;10.50;70.10;;;;;;4983121;28;20187;-60
2022/04/25 06:54:13;;;;;;;2.40;1.47;;;10.60;70.30;;;;;;4965876;28;20295;-60
2022/04/25 06:56:39;;;;;;;6.67;1.60;;;10.60;70.30;;;;;;4956594;28;20197;-60
2022/04/25 06:59:05;;;;;;;4.67;2.00;;;10.60;69.50;;;;;;4991677;28;20185;-60
2022/04/25 07:01:32;;;;;;;5.00;1.63;;;10.90;69.90;;;;;;4964984;28;20256;-60
2022/04/25 07:03:58;;;;;;;3.30;1.97;;;11.00;69.80;;;;;;4966532;28;20200;-60
2022/04/25 07:06:24;;;;;;;6.33;1.30;;;11.00;68.50;;;;;;4977401;28;20275;-60
2022/04/25 07:08:50;;;;;;;3.10;1.70;;;11.20;68.50;;;;;;4977263;28;20307;-60
2022/04/25 07:11:16;;;;;;;3.27;1.50;;;11.30;68.40;;;;;;4961575;28;20275;-60
2022/04/25 07:13:42;;;;;;;4.83;1.30;;;11.30;68.30;;;;;;4977086;28;20231;-60
2022/04/25 07:16:09;;;;;;;2.97;1.37;;;11.40;68.30;;;;;;4977573;28;20327;-60
2022/04/25 07:18:35;;;;;;;7.43;1.50;;;11.40;67.30;;;;;;4957065;28;20185;-60
2022/04/25 07:28:48;;;;;;;2.93;1.20;;;11.40;67.70;;;;;;4976078;28;20197;-60
2022/04/25 07:29:15;;;;;;;3.40;1.53;;;11.80;66.90;;;;;;4993483;28;20195;-60
2022/04/25 07:31:41;;;;;;;2.93;1.87;;;12.00;66.40;;;;;;4963941;28;20204;-60
2022/04/25 07:34:06;;;;;;;2.73;1.33;;;12.00;67.00;;;;;;4956936;28;20213;-60
2022/04/25 07:36:32;;;;;;;8.63;1.83;;;11.80;63.70;;;;;;4965176;28;20192;-60
2022/04/25 07:38:58;;;;;;;8.50;1.40;;;12.00;64.50;;;;;;4976586;28;20195;-60
2022/04/25 07:41:26;;;;;;;2.03;1.13;;;12.10;63.90;;;;;;4960718;28;20192;-60
2022/04/25 07:43:51;;;;;;;1.10;0.83;;;12.20;62.70;;;;;;4975148;28;20308;-60
2022/04/25 07:46:20;;;;;;;3.30;1.10;;;12.30;63.00;;;;;;4974744;28;20267;-60
2022/04/25 07:48:46;;;;;;;1.63;1.03;;;12.30;60.70;;;;;;4963811;28;20231;-60
2022/04/25 07:51:11;;;;;;;2.00;1.10;;;12.30;60.50;;;;;;4957279;28;20224;-60
2022/04/25 07:53:37;;;;;;;2.47;1.20;;;12.30;63.40;;;;;;4961986;28;20193;-60
2022/04/25 07:56:03;;;;;;;6.03;1.33;;;12.30;61.50;;;;;;4957311;28;20181;-60
2022/04/25 07:58:29;;;;;;;2.37;1.10;;;12.50;61.60;;;;;;4961506;28;20223;-60
2022/04/25 08:00:56;;;;;;;2.40;0.90;;;12.70;62.30;;;;;;4976657;28;20185;-60
2022/04/25 08:03:22;;;;;;;3.17;1.10;;;12.70;60.20;;;;;;4976670;28;20188;-60
2022/04/25 08:05:48;;;;;;;2.03;1.23;;;12.90;59.60;;;;;;4976293;28;20192;-60
2022/04/25 08:08:14;;;;;;;2.23;0.97;;;13.00;59.80;;;;;;4980064;28;20219;-60
2022/04/25 08:10:40;;;;;;;2.23;1.00;;;13.10;59.00;;;;;;4978643;28;20184;-60
2022/04/25 08:18:41;;;;;;;3.37;0.87;;;13.50;59.80;;;;;;4992711;28;20265;-60
2022/04/25 08:21:07;;;;;;;1.30;0.80;;;13.60;60.00;;;;;;4974584;28;20200;-60
2022/04/25 08:23:33;;;;;;;2.40;0.80;;;13.80;57.50;;;;;;4974101;28;20204;-60
2022/04/25 08:25:59;;;;;;;1.37;0.70;;;13.80;57.00;;;;;;4976138;28;20243;-60
2022/04/25 08:28:25;;;;;;;3.73;0.67;;;13.90;55.20;;;;;;4992136;28;20216;-60
2022/04/25 08:30:52;;;;;;;1.13;0.80;;;14.00;54.30;;;;;;4976238;28;20227;-60
2022/04/25 08:33:19;;;;;;;1.93;0.67;;;14.20;55.70;;;;;;4961960;28;20299;-60
2022/04/25 08:35:45;;;;;;;1.50;0.60;;;14.30;55.50;;;;;;4956824;28;20223;-60
2022/04/25 08:38:11;;;;;;;1.53;0.70;;;14.50;56.60;;;;;;4974658;28;20184;-60
2022/04/25 08:40:38;;;;;;;0.80;0.50;;;14.60;56.10;;;;;;4991947;28;20189;-60
2022/04/25 08:43:05;;;;;;;0.70;0.37;;;14.70;55.00;;;;;;4975958;28;20251;-60
2022/04/25 08:45:32;;;;;;;0.50;0.50;;;14.80;49.50;;;;;;4990760;28;20192;-60
2022/04/25 08:48:00;;;;;;;0.47;0.40;;;14.80;50.20;;;;;;4984743;28;20233;-60
2022/04/25 08:50:30;;;;;;;1.70;0.60;;;14.80;49.30;;;;;;4990521;28;20195;-60
2022/04/25 08:52:57;;;;;;;1.30;0.40;;;14.70;50.50;;;;;;4991195;28;20201;-60
2022/04/25 08:55:23;;;;;;;1.67;0.50;;;14.70;51.10;;;;;;4978381;28;20319;-60
2022/04/25 08:57:51;;;;;;;3.67;0.60;;;14.80;51.00;;;;;;5011777;28;20188;-60
2022/04/25 09:00:17;;;;;;;1.03;0.50;;;14.80;51.80;;;;;;5004402;28;20197;-60
2022/04/25 09:02:44;;;;;;;2.10;0.70;;;14.80;49.40;;;;;;4967574;28;20193;-60
2022/04/25 09:05:11;;;;;;;1.67;0.67;;;15.00;49.00;;;;;;4986038;28;20252;-60
2022/04/25 09:07:38;;;;;;;1.00;0.53;;;15.10;49.50;;;;;;4975281;28;20207;-60
2022/04/25 09:10:22;;;;;;;1.30;1.13;;;15.20;50.60;;;;;;4975338;28;20192;-60
2022/04/25 09:12:48;;;;;;;1.57;0.70;;;15.40;50.60;;;;;;4990789;28;20205;-60
2022/04/25 09:15:22;;;;;;;0.73;0.73;;;15.50;50.50;;;;;;4991844;28;20217;-60
2022/04/25 09:17:47;;;;;;;1.53;1.03;;;15.50;49.70;;;;;;4991657;28;20242;-60
2022/04/25 09:20:13;;;;;;;1.57;0.80;;;15.40;48.10;;;;;;5000753;28;20188;-60
2022/04/25 09:22:40;;;;;;;4.40;1.10;;;15.50;49.50;;;;;;4993672;28;20413;-60
2022/04/25 09:25:10;;;;;;;3.80;1.20;;;15.60;48.40;;;;;;4996734;28;20236;-58
2022/04/25 09:27:37;;;;;;;2.80;0.97;;;15.70;48.20;;;;;;4998621;28;20192;-58
2022/04/25 09:30:19;;;;;;;3.53;1.03;;;15.90;49.00;;;;;;4996686;28;20681;-58
2022/04/25 09:32:46;;;;;;;2.27;0.90;;;16.00;48.80;;;;;;5013505;28;20210;-58
2022/04/25 09:35:32;;;;;;;6.87;1.53;;;16.00;50.20;;;;;;4997275;28;20704;-58
2022/04/25 09:38:00;;;;;;;3.20;1.53;;;16.20;49.00;;;;;;5016044;28;20176;-58
2022/04/25 09:40:29;;;;;;;1.73;1.00;;;16.30;49.90;;;;;;5013025;28;20299;-59
2022/04/25 09:43:16;;;;;;;1.77;0.80;;;16.30;47.80;;;;;;5014612;28;20180;-58
2022/04/25 09:45:43;;;;;;;5.27;0.93;;;16.30;49.00;;;;;;5014429;28;20198;-58
2022/04/25 09:48:18;;;;;;;3.67;0.80;;;16.50;49.50;;;;;;5012377;28;20233;-58
2022/04/25 09:50:59;;;;;;;0.93;0.70;;;16.50;47.50;;;;;;5009720;28;20194;-58
2022/04/25 09:53:43;;;;;;;1.27;0.63;;;16.40;47.70;;;;;;4989202;28;20199;-58
2022/04/25 09:56:30;;;;;;;2.23;0.87;;;16.40;47.80;;;;;;5000392;28;20196;-58
2022/04/25 09:59:02;;;;;;;1.63;0.63;;;16.50;49.30;;;;;;4995375;28;20256;-58
2022/04/25 10:01:29;;;;;;;0.93;0.63;;;16.60;50.60;;;;;;4986217;28;20184;-58
2022/04/25 10:03:55;;;;;;;1.87;0.67;;;16.80;50.40;;;;;;4994745;28;20268;-58
2022/04/25 10:06:22;;;;;;;2.33;0.70;;;17.00;48.80;;;;;;4978711;28;20267;-59
2022/04/25 10:08:50;;;;;;;1.00;0.60;;;17.20;47.60;;;;;;4977904;28;20254;-58
2022/04/25 10:11:18;;;;;;;2.93;0.80;;;17.60;45.20;;;;;;4994507;28;20207;-58
2022/04/25 10:13:46;;;;;;;3.00;0.70;;;17.80;45.60;;;;;;4988892;28;20224;-59
2022/04/25 10:16:12;;;;;;;2.07;0.70;;;17.80;42.80;;;;;;4975135;28;20193;-58
2022/04/25 10:18:39;;;;;;;0.97;0.60;;;17.50;43.10;;;;;;4974521;28;20194;-58
2022/04/25 10:21:07;;;;;;;0.43;0.40;;;17.30;42.60;;;;;;4987081;28;20193;-58
2022/04/25 10:23:34;;;;;;;0.83;0.60;;;17.30;43.80;;;;;;4977039;28;20185;-58
2022/04/25 10:26:01;;;;;;;1.13;0.63;;;17.40;43.60;;;;;;4992347;28;20232;-59
2022/04/25 10:28:45;;;;;;;0.60;0.43;;;17.50;44.50;;;;;;4993234;28;20196;-58
2022/04/25 10:31:18;;;;;;;1.27;0.60;;;17.70;45.80;;;;;;4994531;28;20197;-58
2022/04/25 10:33:48;;;;;;;2.73;0.80;;;18.00;45.00;;;;;;5013823;28;20184;-59
2022/04/25 10:36:49;;;;;;;1.17;0.70;;;18.10;42.60;;;;;;5010286;28;20184;-58
2022/04/25 10:39:25;;;;;;;0.93;0.67;;;18.20;43.40;;;;;;4954471;29;20210;-59
2022/04/25 10:44:37;;;;;;;1.83;0.70;;;18.60;41.90;;;;;;4995098;28;20176;-58
2022/04/25 10:47:03;;;;;;;4.27;0.90;;;18.70;41.10;;;;;;4991983;28;20196;-59
2022/04/25 10:49:47;;;;;;;0.70;0.57;;;18.70;40.20;;;;;;4992891;28;20185;-59
2022/04/25 10:52:54;;;;;;;3.33;0.67;;;18.50;42.20;;;;;;4991421;28;20192;-58
2022/04/25 10:55:38;;;;;;;1.10;0.70;;;18.50;42.00;;;;;;4994692;28;20266;-59
2022/04/25 10:58:04;;;;;;;2.47;0.80;;;18.50;42.00;;;;;;4995449;28;20184;-59
2022/04/25 11:00:39;;;;;;;0.63;0.53;;;18.60;40.70;;;;;;4996500;28;20185;-59
2022/04/25 11:03:05;;;;;;;0.87;0.67;;;18.50;41.40;;;;;;5003539;28;20185;-59
2022/04/25 11:05:30;;;;;;;1.33;0.67;;;18.60;41.80;;;;;;4995279;28;20195;-59
2022/04/25 11:08:18;;;;;;;0.53;0.50;;;18.70;41.80;;;;;;4996235;28;20270;-58
2022/04/25 11:11:02;;;;;;;1.03;0.63;;;18.80;41.80;;;;;;5007638;28;20184;-59
2022/04/25 11:13:30;;;;;;;0.50;0.50;;;19.00;41.30;;;;;;4975179;28;20209;-58
2022/04/25 11:15:58;;;;;;;1.70;0.50;;;18.90;42.00;;;;;;4978443;28;20196;-59
2022/04/25 11:18:35;;;;;;;0.60;0.50;;;18.80;41.10;;;;;;4978192;28;20189;-59
2022/04/25 11:21:08;;;;;;;2.03;0.80;;;18.80;41.60;;;;;;4989768;28;20185;-59
2022/04/25 11:23:43;;;;;;;1.10;0.70;;;18.70;41.50;;;;;;5004384;28;20180;-59
2022/04/25 11:26:21;;;;;;;1.53;0.50;;;18.60;41.70;;;;;;4978283;28;20700;-59
2022/04/25 11:31:25;;;;;;;0.57;0.57;;;19.10;40.50;;;;;;5005218;28;20266;-59
2022/04/25 11:33:53;;;;;;;0.57;0.43;;;19.20;41.40;;;;;;4982039;28;20209;-59
2022/04/25 11:36:20;;;;;;;1.70;0.53;;;19.50;40.30;;;;;;4988569;28;20254;-58
2022/04/25 11:41:36;;;;;;;1.83;0.70;;;19.90;42.10;;;;;;5003279;28;20199;-59
2022/04/25 11:44:04;;;;;;;0.30;0.30;;;20.20;41.90;;;;;;5007926;28;20198;-59
2022/04/25 11:46:32;;;;;;;0.90;0.70;;;20.20;39.50;;;;;;4978199;28;20198;-59
2022/04/25 11:48:58;;;;;;;0.67;0.50;;;20.20;39.20;;;;;;4991871;28;20288;-59
2022/04/25 11:51:25;;;;;;;0.87;0.50;;;20.00;42.00;;;;;;4973739;28;20291;-59
2022/04/25 11:53:57;;;;;;;0.67;0.40;;;20.20;40.00;;;;;;4993930;28;20192;-59
2022/04/25 11:56:22;;;;;;;0.93;0.50;;;20.20;39.60;;;;;;4962370;28;20192;-59
2022/04/25 11:58:52;;;;;;;0.40;0.40;;;20.60;38.40;;;;;;4978290;28;20179;-59
2022/04/25 12:01:36;;;;;;;0.30;0.27;;;20.60;36.00;;;;;;4977405;28;20259;-58
2022/04/25 12:04:17;;;;;;;0.27;0.27;;;20.80;35.60;;;;;;4999094;28;20195;-59
2022/04/25 12:07:08;;;;;;;0.40;0.30;;;21.00;35.20;;;;;;4998991;28;20718;-59
2022/04/25 12:18:18;;;;;;;0.83;0.40;;;22.00;35.20;;;;;;4981219;28;20330;-59
2022/04/25 12:20:59;;;;;;;1.50;0.23;;;22.60;34.90;;;;;;4987116;28;20203;-59
2022/04/25 12:23:39;;;;;;;0.37;0.27;;;22.80;32.70;;;;;;4988907;28;20200;-59
2022/04/25 12:26:06;;;;;;;0.40;0.20;;;23.50;32.20;;;;;;4981100;28;20227;-59
2022/04/25 12:28:38;;;;;;;0.77;0.30;;;23.50;31.80;;;;;;4973529;28;20451;-59
2022/04/25 12:31:04;;;;;;;0.10;0.10;;;23.20;33.40;;;;;;4962728;28;20438;-59
2022/04/25 12:33:37;;;;;;;0.30;0.30;;;23.50;34.30;;;;;;4975906;28;20441;-59
2022/04/25 12:36:09;;;;;;;0.23;0.20;;;23.10;32.90;;;;;;4986880;28;20200;-60
2022/04/25 12:38:41;;;;;;;0.30;0.30;;;23.10;33.00;;;;;;4992408;28;20181;-59
2022/04/25 12:41:09;;;;;;;0.77;0.40;;;22.90;31.20;;;;;;4985084;28;20191;-59
2022/04/25 12:43:44;;;;;;;1.10;0.40;;;22.50;33.20;;;;;;4971173;28;20212;-59
2022/04/25 12:46:12;;;;;;;0.43;0.40;;;22.00;33.60;;;;;;4981289;28;20204;-59
2022/04/25 12:48:57;;;;;;;1.00;0.47;;;22.00;34.10;;;;;;4969101;28;20208;-59
2022/04/25 12:51:36;;;;;;;0.50;0.50;;;22.10;34.90;;;;;;4973097;28;20281;-59
2022/04/25 12:54:04;;;;;;;0.40;0.40;;;22.00;35.10;;;;;;4985231;28;20299;-59
2022/04/25 12:56:33;;;;;;;0.70;0.60;;;21.90;36.90;;;;;;4989108;28;20181;-59
2022/04/25 12:59:00;;;;;;;0.80;0.60;;;21.80;37.80;;;;;;4994429;28;20184;-59
2022/04/25 13:01:34;;;;;;;0.60;0.50;;;22.10;37.10;;;;;;4976599;28;20199;-59
2022/04/25 13:04:08;;;;;;;0.93;0.60;;;21.80;36.50;;;;;;4977654;28;20183;-59
2022/04/25 13:06:35;;;;;;;0.60;0.60;;;21.40;36.00;;;;;;4977243;28;20265;-59
2022/04/25 13:09:02;;;;;;;1.07;0.50;;;21.30;37.60;;;;;;4977182;28;20223;-59
2022/04/25 13:11:27;;;;;;;2.73;0.50;;;21.50;38.00;;;;;;4980130;28;20191;-59
2022/04/25 13:13:53;;;;;;;1.40;0.87;;;21.60;36.40;;;;;;4980489;28;20256;-59
2022/04/25 13:16:19;;;;;;;1.77;0.67;;;21.20;36.10;;;;;;4967814;28;20196;-58
2022/04/25 13:18:45;;;;;;;0.60;0.50;;;21.30;37.00;;;;;;4961404;28;20181;-59
2022/04/25 13:21:12;;;;;;;2.63;0.73;;;21.60;35.40;;;;;;4987175;28;20192;-58
2022/04/25 13:23:38;;;;;;;1.90;0.60;;;21.40;35.00;;;;;;4976617;28;20197;-58
2022/04/25 13:26:03;;;;;;;2.20;0.50;;;21.80;34.80;;;;;;4977805;28;20259;-59
2022/04/25 13:28:29;;;;;;;2.13;0.70;;;22.40;35.20;;;;;;4966940;28;20201;-59
2022/04/25 13:30:56;;;;;;;0.50;0.50;;;23.00;33.20;;;;;;4959142;28;20181;-59
2022/04/25 13:33:22;;;;;;;2.27;0.50;;;23.90;35.00;;;;;;4958205;28;20200;-59
2022/04/25 13:35:48;;;;;;;1.20;0.70;;;24.70;31.60;;;;;;4958756;28;20209;-59